AKDT,Max TemperatureF,Mean TemperatureF,Min TemperatureF,Max Dew PointF,MeanDew PointF,Min DewpointF,Max Humidity, Mean Humidity, Min Humidity, Max Sea Level PressureIn, Mean Sea Level PressureIn, Min Sea Level PressureIn, Max VisibilityMiles, Mean VisibilityMiles, Min VisibilityMiles, Max Wind SpeedMPH, Mean Wind SpeedMPH, Max Gust SpeedMPH,PrecipitationIn, CloudCover, Events, WindDirDegrees
2012-9-1,59,52,48,51,49,45,100,94,62,29.70,29.56,29.49,10,5,0,12,1,18,0.18,8,Fog-Rain,345
2012-9-2,53,50,48,49,46,43,100,86,69,29.83,29.76,29.69,10,9,2,16,3,23,0.20,8,Rain,194
2012-9-3,54,48,43,52,49,42,100,92,82,29.81,29.65,29.58,10,7,2,33,6,67,0.47,8,Rain,179
2012-9-4,52,46,39,47,43,39,100,93,74,30.02,29.90,29.73,10,5,0,21,3,32,0.73,7,Fog-Rain,202
2012-9-5,53,48,42,49,46,43,100,89,74,29.91,29.74,29.67,10,6,2,24,8,31,0.44,7,Rain,168
2012-9-6,55,47,39,47,42,37,100,90,62,30.16,30.06,29.94,10,6,0,10,2,,0.00,4,Fog,207
2012-9-7,52,46,41,43,42,39,97,85,66,30.17,30.03,29.90,10,10,5,8,2,,0.14,7,Rain,115
2012-9-8,59,51,43,42,38,31,97,69,40,29.89,29.76,29.62,10,10,10,20,5,36,0.03,5,Rain,346
2012-9-9,61,54,48,35,30,28,54,41,30,29.75,29.66,29.62,10,10,10,23,17,39,0.00,1,,326
2012-9-10,62,53,43,38,32,26,80,49,27,29.85,29.81,29.78,10,10,10,16,10,26,0.00,0,,5
2012-9-11,53,44,35,45,41,33,97,87,66,29.89,29.82,29.69,10,10,6,7,2,,0.15,6,Rain,358
2012-9-12,55,50,45,45,42,39,97,74,62,29.74,29.63,29.57,10,10,9,15,5,,0.07,7,Rain,8
2012-9-13,59,49,39,47,43,39,97,79,55,29.81,29.78,29.74,10,10,10,12,7,16,0.00,5,Rain,27
2012-9-14,50,44,37,47,45,37,100,93,86,29.86,29.84,29.80,10,7,2,14,4,20,0.52,7,Rain,191
2012-9-15,52,49,46,50,48,44,100,91,80,29.90,29.85,29.74,10,5,2,22,7,33,2.10,8,Rain,180
2012-9-16,51,48,46,50,48,44,100,95,80,29.71,29.54,29.45,10,4,2,32,8,48,2.45,8,Rain,160
2012-9-17,52,48,46,48,43,40,94,81,66,30.01,29.89,29.70,10,9,5,38,13,150,0.20,7,Rain,177
2012-9-18,51,47,44,47,46,43,100,94,76,29.98,29.91,29.87,10,7,4,21,11,33,1.28,8,Rain,181
2012-9-19,57,51,45,54,50,44,100,93,82,29.92,29.65,29.57,10,3,1,38,9,51,5.87,8,Rain,188
2012-9-20,54,51,48,52,49,46,100,97,89,29.78,29.74,29.70,10,4,0,18,5,21,2.78,8,Fog-Rain,164
2012-9-21,63,50,44,56,49,44,100,97,78,29.85,29.74,29.57,10,5,0,17,2,31,1.52,8,Fog-Rain,153
2012-9-22,62,52,46,57,48,45,100,96,77,29.55,29.44,29.36,10,3,0,29,9,46,3.16,8,Fog-Rain,197
2012-9-23,53,48,44,50,48,45,100,94,83,29.77,29.53,29.35,10,6,1,14,5,21,1.11,8,Rain,163
2012-9-24,51,47,44,48,45,38,100,93,68,29.95,29.87,29.77,10,5,0,18,1,29,0.16,8,Fog-Rain,182
2012-9-25,48,45,42,45,43,39,100,90,69,29.85,29.49,29.19,10,7,2,12,5,29,1.09,8,Rain,229
2012-9-26,48,45,42,44,41,37,96,83,71,29.42,29.11,28.77,10,7,2,16,7,37,1.13,8,Rain,357
2012-9-27,48,44,43,43,39,37,90,79,71,29.00,28.85,28.74,10,10,8,17,12,25,0.19,8,Rain,360
2012-9-28,50,42,36,41,39,35,97,85,68,29.46,29.28,29.00,10,9,4,16,7,23,0.42,8,Rain,249
2012-9-29,44,38,32,36,33,31,100,88,67,29.86,29.68,29.47,10,10,7,7,3,,0.04,4,Rain,17
2012-9-30,48,41,34,34,30,28,86,70,50,30.06,29.96,29.88,10,10,10,17,10,26,0.00,3,,9